createdAt,value
2017-12-21T00:00:44.936Z,71.80
2017-12-21T00:03:12.481Z,71.80
2017-12-21T00:05:40.832Z,71.80
2017-12-21T00:08:08.336Z,71.80
2017-12-21T00:10:36.660Z,71.70
2017-12-21T00:13:04.712Z,71.60
2017-12-21T00:15:32.266Z,71.70
2017-12-21T00:17:59.784Z,71.80
2017-12-21T00:20:27.340Z,71.80
2017-12-21T00:22:55.678Z,71.80
2017-12-21T00:25:23.315Z,72.60
2017-12-21T00:27:51.343Z,71.70
2017-12-21T00:30:19.255Z,72.50
2017-12-21T00:32:46.780Z,72.60
2017-12-21T00:35:15.904Z,71.70
2017-12-21T00:37:43.409Z,71.70
2017-12-21T00:40:10.939Z,71.70
2017-12-21T00:42:39.993Z,71.70
2017-12-21T00:45:08.048Z,71.70
2017-12-21T00:47:37.156Z,71.80
2017-12-21T00:50:04.689Z,71.70
2017-12-21T00:52:33.043Z,71.70
2017-12-21T00:55:00.624Z,71.70
2017-12-21T00:57:29.027Z,71.70
2017-12-21T00:59:57.363Z,71.70
2017-12-21T01:02:24.993Z,71.80
2017-12-21T01:04:52.497Z,71.70
2017-12-21T01:07:20.003Z,71.80
2017-12-21T01:09:47.508Z,71.80
2017-12-21T01:12:15.028Z,71.80
2017-12-21T01:14:42.535Z,71.80
2017-12-21T01:17:11.524Z,72.40
2017-12-21T01:19:39.041Z,72.70
2017-12-21T01:22:06.540Z,71.90
2017-12-21T01:24:34.057Z,71.80
2017-12-21T01:27:02.410Z,71.90
2017-12-21T01:29:29.944Z,71.90
2017-12-21T01:31:58.215Z,71.90
2017-12-21T01:34:26.494Z,71.90
2017-12-21T01:36:54.788Z,71.90
2017-12-21T01:39:23.187Z,71.80
2017-12-21T01:41:51.475Z,71.90
2017-12-21T01:44:19.059Z,71.90
2017-12-21T01:46:46.558Z,71.90
2017-12-21T01:49:14.084Z,71.80
2017-12-21T01:51:41.676Z,71.90
2017-12-21T01:54:10.093Z,71.90
2017-12-21T01:56:39.032Z,71.90
2017-12-21T01:59:07.312Z,71.90
2017-12-21T02:01:35.675Z,71.90
2017-12-21T02:04:03.549Z,71.90
2017-12-21T02:06:31.089Z,71.90
2017-12-21T02:08:58.691Z,71.90
2017-12-21T02:11:26.235Z,71.90
2017-12-21T02:13:54.516Z,72.00
2017-12-21T02:29:21.877Z,71.90
2017-12-21T02:31:49.386Z,72.00
2017-12-21T02:34:17.873Z,72.00
2017-12-21T02:36:45.405Z,72.00
2017-12-21T02:39:13.704Z,72.00
2017-12-21T02:41:41.980Z,72.00
2017-12-21T02:44:10.284Z,72.10
2017-12-21T02:46:38.632Z,72.00
2017-12-21T02:49:06.223Z,72.00
2017-12-21T02:51:33.759Z,72.10
2017-12-21T02:54:01.284Z,72.10
2017-12-21T02:56:28.800Z,72.00
2017-12-21T02:58:56.965Z,72.10
2017-12-21T03:01:24.511Z,72.10
2017-12-21T03:06:46.002Z,72.10
2017-12-21T03:09:13.512Z,72.10
2017-12-21T03:11:41.023Z,72.10
2017-12-21T03:14:08.830Z,72.10
2017-12-21T03:16:36.404Z,72.10
2017-12-21T03:19:03.961Z,72.10
2017-12-21T03:21:31.464Z,72.20
2017-12-21T03:23:58.988Z,72.20
2017-12-21T03:26:26.545Z,72.20
2017-12-21T03:28:54.121Z,72.20
2017-12-21T03:31:21.670Z,72.20
2017-12-21T03:33:49.190Z,72.10
2017-12-21T03:36:16.690Z,72.20
2017-12-21T03:38:44.208Z,72.20
2017-12-21T03:41:11.733Z,72.20
2017-12-21T03:43:40.146Z,72.30
2017-12-21T03:46:07.749Z,72.30
2017-12-21T03:48:35.354Z,72.30
2017-12-21T03:51:03.633Z,72.30
2017-12-21T03:53:31.168Z,72.30
2017-12-21T03:55:59.440Z,72.30
2017-12-21T03:58:26.962Z,72.30
2017-12-21T04:00:54.511Z,72.30
2017-12-21T04:03:22.112Z,72.30
2017-12-21T04:05:49.778Z,72.30
2017-12-21T04:08:17.317Z,72.30
2017-12-21T04:10:44.849Z,72.30
2017-12-21T04:13:12.363Z,72.30
2017-12-21T04:15:40.661Z,72.40
2017-12-21T04:18:08.362Z,72.40
2017-12-21T04:20:35.929Z,72.40
2017-12-21T04:23:03.441Z,72.40
2017-12-21T04:25:30.945Z,72.40
2017-12-21T04:27:58.477Z,72.40
2017-12-21T04:30:26.037Z,72.40
2017-12-21T04:32:53.720Z,72.40
2017-12-21T04:35:21.295Z,72.40
2017-12-21T04:37:48.867Z,72.50
2017-12-21T04:40:17.141Z,72.60
2017-12-21T04:42:45.424Z,72.60
2017-12-21T04:45:13.952Z,72.60
2017-12-21T04:47:41.464Z,72.60
2017-12-21T04:50:09.744Z,72.70
2017-12-21T04:52:38.009Z,72.70
2017-12-21T04:55:06.299Z,72.80
2017-12-21T04:57:33.971Z,72.80
2017-12-21T05:00:01.649Z,72.70
2017-12-21T05:02:29.321Z,72.80
2017-12-21T05:04:56.852Z,73.60
2017-12-21T05:07:24.367Z,72.90
2017-12-21T05:09:51.874Z,72.90
2017-12-21T05:12:19.416Z,72.90
2017-12-21T05:14:47.100Z,72.90
2017-12-21T05:17:14.649Z,73.00
2017-12-21T05:19:42.166Z,73.40
2017-12-21T05:22:10.481Z,73.50
2017-12-21T05:24:37.995Z,73.50
2017-12-21T05:27:05.512Z,73.50
2017-12-21T05:29:33.164Z,73.80
2017-12-21T05:32:00.793Z,75.10
2017-12-21T05:34:29.131Z,74.90
2017-12-21T05:36:56.683Z,74.70
2017-12-21T05:39:24.190Z,74.50
2017-12-21T05:41:52.486Z,73.90
2017-12-21T05:44:20.009Z,73.90
2017-12-21T05:46:47.520Z,73.70
2017-12-21T05:49:15.052Z,73.60
2017-12-21T05:51:42.708Z,73.50
2017-12-21T05:54:11.206Z,73.50
2017-12-21T05:56:39.805Z,73.60
2017-12-21T05:59:07.325Z,73.50
2017-12-21T06:01:35.612Z,73.60
2017-12-21T06:04:03.116Z,73.60
2017-12-21T06:06:30.643Z,73.50
2017-12-21T06:08:58.402Z,73.50
2017-12-21T06:11:26.041Z,73.50
2017-12-21T06:13:53.687Z,73.30
2017-12-21T06:16:21.167Z,73.40
2017-12-21T06:18:48.673Z,73.40
2017-12-21T06:21:16.183Z,73.40
2017-12-21T06:23:43.735Z,73.30
2017-12-21T06:26:12.008Z,73.30
2017-12-21T06:28:40.361Z,73.30
2017-12-21T06:31:07.988Z,73.20
2017-12-21T06:33:35.501Z,74.00
2017-12-21T06:36:03.784Z,73.10
2017-12-21T06:38:31.293Z,73.10
2017-12-21T06:40:58.821Z,73.10
2017-12-21T06:43:26.336Z,73.10
2017-12-21T06:45:54.860Z,73.80
2017-12-21T06:48:22.519Z,73.00
2017-12-21T06:50:50.021Z,73.90
2017-12-21T06:53:17.552Z,73.00
2017-12-21T06:55:45.067Z,73.00
2017-12-21T06:58:13.348Z,73.00
2017-12-21T07:00:40.858Z,72.90
2017-12-21T07:03:08.499Z,73.00
2017-12-21T07:05:36.073Z,72.90
2017-12-21T07:08:03.580Z,73.00
2017-12-21T07:10:31.894Z,72.90
2017-12-21T07:12:59.410Z,73.10
2017-12-21T07:15:27.696Z,73.10
2017-12-21T07:17:55.245Z,73.90
2017-12-21T07:20:23.529Z,73.10
2017-12-21T07:22:51.124Z,73.00
2017-12-21T07:25:18.704Z,72.90
2017-12-21T07:27:46.204Z,72.90
2017-12-21T07:30:13.724Z,73.00
2017-12-21T07:32:41.232Z,73.00
2017-12-21T07:35:08.749Z,73.00
2017-12-21T07:37:36.491Z,73.00
2017-12-21T07:40:04.156Z,73.70
2017-12-21T07:42:31.664Z,72.90
2017-12-21T07:44:59.182Z,73.00
2017-12-21T07:47:26.694Z,72.90
2017-12-21T07:49:54.988Z,72.90
2017-12-21T07:52:22.771Z,72.90
2017-12-21T07:54:50.424Z,72.90
2017-12-21T07:57:17.985Z,72.90
2017-12-21T07:59:45.497Z,72.90
2017-12-21T08:02:13.025Z,73.70
2017-12-21T08:04:40.540Z,72.90
2017-12-21T08:07:08.137Z,73.50
2017-12-21T08:09:35.832Z,72.90
2017-12-21T08:12:03.415Z,72.90
2017-12-21T08:14:30.966Z,72.90
2017-12-21T08:16:58.500Z,72.90
2017-12-21T08:19:26.801Z,73.00
2017-12-21T08:21:54.308Z,73.00
2017-12-21T08:24:21.872Z,73.00
2017-12-21T08:26:50.036Z,72.90
2017-12-21T08:29:17.720Z,73.00
2017-12-21T08:31:45.382Z,73.00
2017-12-21T08:34:12.908Z,72.90
2017-12-21T08:36:40.427Z,73.00
2017-12-21T08:39:07.936Z,73.00
2017-12-21T08:41:35.476Z,72.90
2017-12-21T08:44:03.225Z,73.70
2017-12-21T08:46:30.813Z,73.00
2017-12-21T08:48:58.333Z,72.90
2017-12-21T08:51:25.855Z,72.90
2017-12-21T08:53:54.128Z,73.00
2017-12-21T08:56:22.416Z,73.00
2017-12-21T08:58:49.929Z,72.90
2017-12-21T09:01:17.530Z,73.00
2017-12-21T09:03:45.840Z,73.00
2017-12-21T09:06:13.367Z,73.00
2017-12-21T09:08:41.770Z,73.00
2017-12-21T09:11:09.307Z,73.00
2017-12-21T09:13:36.821Z,73.00
2017-12-21T09:16:04.324Z,73.00
2017-12-21T09:18:32.025Z,73.00
2017-12-21T09:20:59.837Z,73.00
2017-12-21T09:23:29.185Z,73.00
2017-12-21T09:25:56.980Z,73.00
2017-12-21T09:28:24.677Z,73.00
2017-12-21T09:30:52.192Z,73.00
2017-12-21T09:33:19.728Z,73.00
2017-12-21T09:35:47.224Z,73.00
2017-12-21T09:38:15.507Z,73.00
2017-12-21T09:40:43.784Z,73.00
2017-12-21T09:43:12.081Z,73.00
2017-12-21T09:45:39.604Z,73.00
2017-12-21T09:48:08.035Z,73.00
2017-12-21T09:50:35.621Z,73.00
2017-12-21T09:53:04.071Z,73.00
2017-12-21T09:55:31.582Z,73.00
2017-12-21T09:57:59.096Z,73.00
2017-12-21T10:00:26.603Z,73.20
2017-12-21T10:02:54.890Z,73.10
2017-12-21T10:05:23.180Z,73.10
2017-12-21T10:07:50.693Z,73.10
2017-12-21T10:10:18.249Z,73.10
2017-12-21T10:12:45.793Z,73.10
2017-12-21T10:15:13.314Z,73.10
2017-12-21T10:17:40.887Z,73.10
2017-12-21T10:20:08.401Z,73.10
2017-12-21T10:22:36.678Z,73.20
2017-12-21T10:25:04.189Z,73.10
2017-12-21T10:27:31.827Z,73.10
2017-12-21T10:29:59.557Z,73.10
2017-12-21T10:32:27.058Z,73.20
2017-12-21T10:34:54.578Z,73.20
2017-12-21T10:37:22.849Z,73.20
2017-12-21T10:39:51.133Z,73.20
2017-12-21T10:42:19.505Z,73.20
2017-12-21T10:44:47.797Z,73.20
2017-12-21T10:47:16.075Z,73.20
2017-12-21T10:49:43.622Z,73.20
2017-12-21T10:52:11.896Z,73.20
2017-12-21T10:54:40.221Z,73.20
2017-12-21T10:57:07.804Z,73.10
2017-12-21T10:59:35.308Z,73.10
2017-12-21T11:02:02.829Z,73.20
2017-12-21T11:04:30.338Z,73.20
2017-12-21T11:06:57.852Z,73.30
2017-12-21T11:09:25.364Z,73.30
2017-12-21T11:11:52.950Z,73.30
2017-12-21T11:14:21.305Z,73.30
2017-12-21T11:16:48.914Z,73.30
2017-12-21T11:19:17.192Z,73.30
2017-12-21T11:21:45.481Z,73.30
2017-12-21T11:24:12.988Z,73.30
2017-12-21T11:26:40.519Z,73.30
2017-12-21T11:29:08.296Z,73.30
2017-12-21T11:31:36.061Z,73.40
2017-12-21T11:34:04.919Z,73.40
2017-12-21T11:36:32.551Z,73.40
2017-12-21T11:39:00.134Z,73.40
2017-12-21T11:41:27.648Z,73.40
2017-12-21T11:43:55.176Z,73.40
2017-12-21T11:46:22.685Z,73.40
2017-12-21T11:48:51.002Z,73.50
2017-12-21T11:51:18.625Z,73.50
2017-12-21T11:53:47.008Z,73.40
2017-12-21T11:56:15.342Z,73.40
2017-12-21T11:58:42.878Z,73.40
2017-12-21T12:01:10.385Z,73.40
2017-12-21T12:03:37.925Z,73.40
2017-12-21T12:06:05.432Z,73.40
2017-12-21T12:08:32.981Z,73.40
2017-12-21T12:11:01.260Z,73.40
2017-12-21T12:13:29.545Z,73.50
2017-12-21T12:15:57.125Z,73.50
2017-12-21T12:18:24.652Z,73.50
2017-12-21T12:20:52.943Z,73.50
2017-12-21T12:23:20.453Z,73.50
2017-12-21T12:25:48.005Z,73.50
2017-12-21T12:28:15.624Z,73.50
2017-12-21T12:30:43.187Z,73.60
2017-12-21T12:33:10.807Z,73.50
2017-12-21T12:35:38.321Z,73.60
2017-12-21T12:38:05.825Z,73.70
2017-12-21T12:40:34.109Z,73.70
2017-12-21T12:43:02.385Z,73.60
2017-12-21T12:45:30.667Z,73.70
2017-12-21T12:47:58.268Z,73.70
2017-12-21T12:50:25.840Z,73.70
2017-12-21T12:52:53.429Z,73.70
2017-12-21T12:55:21.706Z,73.80
2017-12-21T12:57:49.984Z,74.50
2017-12-21T13:00:18.272Z,73.80
2017-12-21T13:02:46.552Z,73.80
2017-12-21T13:05:14.445Z,73.80
2017-12-21T13:07:41.972Z,73.80
2017-12-21T13:10:10.304Z,73.70
2017-12-21T13:12:37.873Z,73.70
2017-12-21T13:15:05.542Z,73.80
2017-12-21T13:17:33.095Z,73.70
2017-12-21T13:20:00.627Z,73.70
2017-12-21T13:22:28.140Z,73.80
2017-12-21T13:24:56.420Z,73.80
2017-12-21T13:27:24.697Z,73.80
2017-12-21T13:29:52.416Z,73.80
2017-12-21T13:32:20.131Z,73.80
2017-12-21T13:34:47.812Z,73.80
2017-12-21T13:37:15.441Z,73.80
2017-12-21T13:39:43.847Z,73.90
2017-12-21T13:42:11.393Z,73.90
2017-12-21T13:47:13.700Z,73.90
2017-12-21T13:49:41.248Z,73.90
2017-12-21T13:52:09.005Z,73.90
2017-12-21T13:54:36.853Z,73.90
2017-12-21T13:57:05.448Z,74.00
2017-12-21T13:59:32.978Z,74.00
2017-12-21T14:02:00.505Z,74.00
2017-12-21T14:04:28.054Z,74.00
2017-12-21T14:06:55.578Z,74.00
2017-12-21T14:09:23.081Z,74.00
2017-12-21T14:11:50.723Z,74.00
2017-12-21T14:14:19.105Z,74.10
2017-12-21T14:16:46.638Z,74.00
2017-12-21T14:19:14.154Z,74.10
2017-12-21T14:21:41.738Z,74.00
2017-12-21T14:24:09.213Z,74.00
2017-12-21T14:26:36.784Z,74.00
2017-12-21T14:29:04.356Z,74.10
2017-12-21T14:31:31.942Z,74.00
2017-12-21T14:34:00.238Z,74.10
2017-12-21T14:36:28.517Z,74.20
2017-12-21T14:38:56.889Z,74.10
2017-12-21T14:41:25.161Z,74.10
2017-12-21T14:43:53.481Z,74.10
2017-12-21T14:46:20.988Z,74.10
2017-12-21T14:48:58.422Z,74.10
2017-12-21T14:51:25.937Z,74.10
2017-12-21T14:53:53.457Z,74.20
2017-12-21T14:56:21.055Z,74.20
2017-12-21T14:58:48.621Z,74.20
2017-12-21T15:01:17.013Z,74.20
2017-12-21T15:03:45.403Z,74.20
2017-12-21T15:06:12.922Z,74.20
2017-12-21T15:08:40.428Z,74.20
2017-12-21T15:11:07.955Z,74.20
2017-12-21T15:13:36.346Z,74.30
2017-12-21T15:16:04.748Z,74.30
2017-12-21T15:18:32.464Z,74.20
2017-12-21T15:21:00.168Z,74.30
2017-12-21T15:23:27.802Z,74.70
2017-12-21T15:25:56.112Z,74.30
2017-12-21T15:28:24.454Z,75.20
2017-12-21T15:30:52.740Z,74.30
2017-12-21T15:33:20.256Z,74.30
2017-12-21T15:35:47.784Z,74.40
2017-12-21T15:38:15.293Z,74.40
2017-12-21T15:40:43.735Z,74.80
2017-12-21T15:43:11.337Z,74.70
2017-12-21T15:45:38.874Z,74.80
2017-12-21T15:48:07.197Z,77.20
2017-12-21T15:50:34.700Z,77.20
2017-12-21T15:53:02.205Z,78.10
2017-12-21T15:55:29.745Z,78.00
2017-12-21T15:57:58.101Z,77.60
2017-12-21T16:00:25.752Z,77.60
2017-12-21T16:02:53.292Z,77.20
2017-12-21T16:05:20.865Z,77.90
2017-12-21T16:07:49.185Z,77.50
2017-12-21T16:10:17.608Z,77.20
2017-12-21T16:12:45.137Z,77.20
2017-12-21T16:15:12.645Z,77.20
2017-12-21T16:17:50.096Z,77.20
2017-12-21T16:20:17.702Z,77.20
2017-12-21T16:22:45.220Z,77.10
2017-12-21T16:25:12.795Z,76.90
2017-12-21T16:27:41.185Z,76.70
2017-12-21T16:30:08.712Z,76.70
2017-12-21T16:32:36.263Z,76.80
2017-12-21T16:35:03.780Z,76.70
2017-12-21T16:37:31.392Z,76.30
2017-12-21T16:39:58.930Z,76.10
2017-12-21T16:42:26.580Z,76.00
2017-12-21T16:44:54.235Z,76.00
2017-12-21T16:47:22.626Z,76.10
2017-12-21T16:49:50.909Z,76.20
2017-12-21T16:52:18.412Z,76.10
2017-12-21T16:54:45.949Z,76.00
2017-12-21T16:57:13.458Z,76.40
2017-12-21T16:59:41.750Z,76.40
2017-12-21T17:02:10.161Z,76.40
2017-12-21T17:04:37.913Z,76.30
2017-12-21T17:07:05.583Z,76.30
2017-12-21T17:09:33.248Z,76.20
2017-12-21T17:12:00.791Z,76.10
2017-12-21T17:14:28.300Z,76.00
2017-12-21T17:16:55.815Z,76.00
2017-12-21T17:19:23.370Z,76.10
2017-12-21T17:21:51.057Z,76.00
2017-12-21T17:24:18.691Z,75.90
2017-12-21T17:26:46.232Z,76.00
2017-12-21T17:29:13.738Z,76.00
2017-12-21T17:31:41.257Z,76.00
2017-12-21T17:34:08.807Z,75.90
2017-12-21T17:36:37.649Z,75.90
2017-12-21T17:39:05.157Z,77.00
2017-12-21T17:41:33.032Z,77.00
2017-12-21T17:44:00.620Z,77.80
2017-12-21T17:46:28.149Z,77.60
2017-12-21T17:48:55.689Z,77.30
2017-12-21T17:51:23.217Z,77.00
2017-12-21T17:53:50.773Z,76.80
2017-12-21T17:56:18.453Z,76.50
2017-12-21T17:58:46.084Z,76.60
2017-12-21T18:01:13.617Z,76.50
2017-12-21T18:03:41.153Z,76.40
2017-12-21T18:06:08.671Z,76.40
2017-12-21T18:08:36.257Z,76.40
2017-12-21T18:11:04.784Z,76.30
2017-12-21T18:13:32.556Z,76.30
2017-12-21T18:16:00.196Z,76.20
2017-12-21T18:18:27.874Z,76.20
2017-12-21T18:20:55.413Z,76.20
2017-12-21T18:23:22.925Z,76.10
2017-12-21T18:25:50.446Z,76.10
2017-12-21T18:28:18.009Z,76.40
2017-12-21T18:30:45.670Z,76.00
2017-12-21T18:33:13.276Z,76.00
2017-12-21T18:35:41.579Z,76.00
2017-12-21T18:38:09.096Z,75.90
2017-12-21T18:40:36.621Z,75.90
2017-12-21T18:43:04.234Z,76.00
2017-12-21T18:45:32.596Z,75.80
2017-12-21T18:48:00.894Z,75.80
2017-12-21T18:50:29.399Z,75.80
2017-12-21T18:52:56.965Z,75.80
2017-12-21T18:55:24.490Z,75.70
2017-12-21T18:57:52.770Z,75.90
2017-12-21T19:00:20.281Z,75.90
2017-12-21T19:02:47.802Z,76.20
2017-12-21T19:05:15.343Z,76.00
2017-12-21T19:07:42.937Z,76.00
2017-12-21T19:10:10.505Z,75.90
2017-12-21T19:12:38.042Z,75.90
2017-12-21T19:15:05.555Z,76.70
2017-12-21T19:17:33.851Z,76.30
2017-12-21T19:20:01.360Z,75.80
2017-12-21T19:22:29.108Z,75.90
2017-12-21T19:24:56.856Z,76.00
2017-12-21T19:27:24.518Z,76.00
2017-12-21T19:29:52.119Z,75.90
2017-12-21T19:32:20.438Z,76.80
2017-12-21T19:34:48.017Z,75.90
2017-12-21T19:37:15.536Z,76.00
2017-12-21T19:39:43.854Z,76.00
2017-12-21T19:42:11.568Z,75.90
2017-12-21T19:44:39.217Z,75.90
2017-12-21T19:47:06.856Z,75.80
2017-12-21T19:49:34.407Z,75.90
2017-12-21T19:52:01.908Z,75.90
2017-12-21T19:54:30.194Z,75.90
2017-12-21T19:56:57.848Z,75.80
2017-12-21T19:59:25.521Z,75.90
2017-12-21T20:01:53.902Z,75.80
2017-12-21T20:04:21.502Z,75.80
2017-12-21T20:06:49.023Z,75.90
2017-12-21T20:09:16.545Z,75.90
2017-12-21T20:11:44.081Z,75.90
2017-12-21T20:14:11.681Z,75.90
2017-12-21T20:16:39.976Z,75.80
2017-12-21T20:19:07.609Z,75.80
2017-12-21T20:21:35.184Z,75.80
2017-12-21T20:24:02.718Z,75.70
2017-12-21T20:26:30.239Z,75.80
2017-12-21T20:28:57.770Z,75.80
2017-12-21T20:31:25.289Z,75.90
2017-12-21T20:33:53.009Z,75.80
2017-12-21T20:36:20.616Z,75.80
2017-12-21T20:38:48.122Z,75.80
2017-12-21T20:41:15.648Z,75.90
2017-12-21T20:43:43.933Z,75.80
2017-12-21T20:46:12.233Z,75.70
2017-12-21T20:48:39.749Z,75.90
2017-12-21T20:51:08.093Z,76.60
2017-12-21T20:53:35.685Z,75.80
2017-12-21T20:56:03.284Z,75.90
2017-12-21T20:58:30.802Z,75.90
2017-12-21T21:00:58.320Z,75.80
2017-12-21T21:03:25.836Z,75.70
2017-12-21T21:05:53.512Z,75.90
2017-12-21T21:08:21.340Z,75.70
2017-12-21T21:10:48.946Z,75.70
2017-12-21T21:13:16.644Z,76.50
2017-12-21T21:15:44.181Z,75.80
2017-12-21T21:18:11.696Z,75.70
2017-12-21T21:20:40.004Z,75.80
2017-12-21T21:23:07.534Z,75.70
2017-12-21T21:25:35.864Z,75.70
2017-12-21T21:28:03.481Z,75.70
2017-12-21T21:30:31.041Z,75.70
2017-12-21T21:32:58.591Z,75.70
2017-12-21T21:35:26.870Z,75.70
2017-12-21T21:37:54.392Z,75.70
2017-12-21T21:40:21.904Z,75.70
2017-12-21T21:42:49.510Z,75.60
2017-12-21T21:45:17.090Z,75.70
2017-12-21T21:47:45.412Z,75.80
2017-12-21T21:50:12.927Z,75.60
2017-12-21T21:52:41.217Z,75.60
2017-12-21T21:55:08.749Z,75.70
2017-12-21T21:57:36.250Z,75.70
2017-12-21T22:00:03.887Z,76.40
2017-12-21T22:02:32.364Z,75.70
2017-12-21T22:05:00.796Z,75.80
2017-12-21T22:07:28.478Z,75.60
2017-12-21T22:09:55.993Z,75.70
2017-12-21T22:12:23.498Z,75.70
2017-12-21T22:14:51.029Z,75.70
2017-12-21T22:17:18.544Z,75.70
2017-12-21T22:19:46.109Z,75.70
2017-12-21T22:22:13.720Z,75.60
2017-12-21T22:24:41.224Z,75.60
2017-12-21T22:27:08.754Z,75.70
2017-12-21T22:29:36.285Z,75.70
2017-12-21T22:32:03.809Z,74.90
2017-12-21T22:34:31.408Z,75.60
2017-12-21T22:36:58.988Z,75.60
2017-12-21T22:39:26.497Z,75.70
2017-12-21T22:41:54.048Z,75.70
2017-12-21T22:44:21.573Z,75.60
2017-12-21T22:46:49.849Z,75.60
2017-12-21T22:49:18.237Z,75.70
2017-12-21T22:51:45.752Z,75.70
2017-12-21T22:54:13.307Z,75.60
2017-12-21T22:56:40.933Z,75.60
2017-12-21T22:59:08.504Z,75.60
2017-12-21T23:01:36.044Z,75.70
2017-12-21T23:04:03.562Z,75.60
2017-12-21T23:06:31.253Z,76.90
2017-12-21T23:08:59.569Z,76.90
2017-12-21T23:11:27.372Z,76.90
2017-12-21T23:13:54.918Z,76.60
2017-12-21T23:16:22.443Z,76.50
2017-12-21T23:18:49.944Z,76.30
2017-12-21T23:21:18.224Z,77.10
2017-12-21T23:23:46.519Z,76.20
2017-12-21T23:26:14.035Z,76.10
2017-12-21T23:28:42.444Z,76.60
2017-12-21T23:31:10.738Z,76.00
2017-12-21T23:33:38.438Z,76.00
2017-12-21T23:36:06.168Z,76.00
2017-12-21T23:38:33.748Z,76.00
2017-12-21T23:41:01.340Z,76.00
2017-12-21T23:43:28.864Z,76.00
2017-12-21T23:45:57.291Z,76.00
2017-12-21T23:48:25.580Z,76.00
2017-12-21T23:50:53.996Z,76.00
2017-12-21T23:53:21.659Z,76.00
2017-12-21T23:55:49.542Z,76.00
2017-12-21T23:58:18.091Z,76.00
